sensor_id;sensor_type;location;lat;lon;timestamp;temperature;humidity
1025;DHT22;501;48.214;11.350;2022-12-11T00:02:07;0.20;55.80
1025;DHT22;501;48.214;11.350;2022-12-11T00:04:33;0.20;56.10
1025;DHT22;501;48.214;11.350;2022-12-11T00:06:58;0.20;56.20
1025;DHT22;501;48.214;11.350;2022-12-11T00:09:24;0.20;55.90
1025;DHT22;501;48.214;11.350;2022-12-11T00:11:50;0.20;55.90
1025;DHT22;501;48.214;11.350;2022-12-11T00:14:15;0.20;55.90
1025;DHT22;501;48.214;11.350;2022-12-11T00:16:41;0.10;56.20
1025;DHT22;501;48.214;11.350;2022-12-11T00:19:07;0.10;55.90
1025;DHT22;501;48.214;11.350;2022-12-11T00:21:35;0.10;56.10
1025;DHT22;501;48.214;11.350;2022-12-11T00:24:04;0.10;56.10
1025;DHT22;501;48.214;11.350;2022-12-11T00:26:30;0.10;55.10
1025;DHT22;501;48.214;11.350;2022-12-11T00:28:56;0.10;55.20
1025;DHT22;501;48.214;11.350;2022-12-11T00:31:22;0.10;55.70
1025;DHT22;501;48.214;11.350;2022-12-11T00:33:48;0.10;55.30
1025;DHT22;501;48.214;11.350;2022-12-11T00:36:20;0.10;54.60
1025;DHT22;501;48.214;11.350;2022-12-11T00:38:47;0.00;54.60
1025;DHT22;501;48.214;11.350;2022-12-11T00:41:13;0.00;54.60
1025;DHT22;501;48.214;11.350;2022-12-11T00:43:39;0.00;55.10
1025;DHT22;501;48.214;11.350;2022-12-11T00:46:04;0.00;54.80
1025;DHT22;501;48.214;11.350;2022-12-11T00:48:30;0.00;55.20
1025;DHT22;501;48.214;11.350;2022-12-11T00:50:56;0.00;55.70
1025;DHT22;501;48.214;11.350;2022-12-11T00:53:22;0.00;56.00
1025;DHT22;501;48.214;11.350;2022-12-11T00:55:47;0.00;55.50
1025;DHT22;501;48.214;11.350;2022-12-11T00:58:13;0.00;55.00
1025;DHT22;501;48.214;11.350;2022-12-11T01:00:40;-0.10;55.40
1025;DHT22;501;48.214;11.350;2022-12-11T01:03:06;-0.10;55.60
1025;DHT22;501;48.214;11.350;2022-12-11T01:05:35;-0.10;55.60
1025;DHT22;501;48.214;11.350;2022-12-11T01:08:01;-0.10;55.60
1025;DHT22;501;48.214;11.350;2022-12-11T01:10:27;-0.10;55.80
1025;DHT22;501;48.214;11.350;2022-12-11T01:12:56;-0.10;56.20
1025;DHT22;501;48.214;11.350;2022-12-11T01:15:25;0.00;56.10
1025;DHT22;501;48.214;11.350;2022-12-11T01:17:51;-0.10;55.60
1025;DHT22;501;48.214;11.350;2022-12-11T01:20:19;-0.10;55.40
1025;DHT22;501;48.214;11.350;2022-12-11T01:22:45;-0.10;56.90
1025;DHT22;501;48.214;11.350;2022-12-11T01:25:10;-0.10;56.70
1025;DHT22;501;48.214;11.350;2022-12-11T01:27:37;-0.10;56.20
1025;DHT22;501;48.214;11.350;2022-12-11T01:30:05;-0.20;56.50
1025;DHT22;501;48.214;11.350;2022-12-11T01:32:33;-0.20;56.70
1025;DHT22;501;48.214;11.350;2022-12-11T01:34:59;-0.20;56.70
1025;DHT22;501;48.214;11.350;2022-12-11T01:37:26;-0.20;57.70
1025;DHT22;501;48.214;11.350;2022-12-11T01:39:52;-0.20;57.60
1025;DHT22;501;48.214;11.350;2022-12-11T01:42:19;-0.20;58.20
1025;DHT22;501;48.214;11.350;2022-12-11T01:47:10;-0.30;57.80
1025;DHT22;501;48.214;11.350;2022-12-11T01:49:37;-0.30;58.10
1025;DHT22;501;48.214;11.350;2022-12-11T01:52:30;-0.30;58.10
1025;DHT22;501;48.214;11.350;2022-12-11T01:54:55;-0.30;58.50
1025;DHT22;501;48.214;11.350;2022-12-11T01:57:21;-0.30;58.20
1025;DHT22;501;48.214;11.350;2022-12-11T01:59:47;-0.20;58.80
1025;DHT22;501;48.214;11.350;2022-12-11T02:02:14;-0.30;58.90
1025;DHT22;501;48.214;11.350;2022-12-11T02:04:43;-0.20;58.20
1025;DHT22;501;48.214;11.350;2022-12-11T02:07:10;-0.20;58.20
1025;DHT22;501;48.214;11.350;2022-12-11T02:09:37;-0.20;57.50
1025;DHT22;501;48.214;11.350;2022-12-11T02:12:15;-0.20;58.20
1025;DHT22;501;48.214;11.350;2022-12-11T02:28:48;-0.30;58.10
1025;DHT22;501;48.214;11.350;2022-12-11T02:31:22;-0.30;57.80
1025;DHT22;501;48.214;11.350;2022-12-11T02:33:59;-0.30;57.20
1025;DHT22;501;48.214;11.350;2022-12-11T02:36:29;-0.30;57.10
1025;DHT22;501;48.214;11.350;2022-12-11T02:38:58;-0.30;57.60
1025;DHT22;501;48.214;11.350;2022-12-11T02:41:29;-0.30;58.70
1025;DHT22;501;48.214;11.350;2022-12-11T02:43:56;-0.30;58.10
1025;DHT22;501;48.214;11.350;2022-12-11T02:46:23;-0.20;58.00
1025;DHT22;501;48.214;11.350;2022-12-11T02:48:50;-0.20;57.30
1025;DHT22;501;48.214;11.350;2022-12-11T02:51:23;-0.20;56.70
1025;DHT22;501;48.214;11.350;2022-12-11T02:53:50;-0.20;55.80
1025;DHT22;501;48.214;11.350;2022-12-11T02:56:33;-0.20;55.20
1025;DHT22;501;48.214;11.350;2022-12-11T02:59:07;-0.20;55.10
1025;DHT22;501;48.214;11.350;2022-12-11T03:01:34;-0.30;55.20
1025;DHT22;501;48.214;11.350;2022-12-11T03:04:00;-0.30;55.00
1025;DHT22;501;48.214;11.350;2022-12-11T03:06:31;-0.30;55.50
1025;DHT22;501;48.214;11.350;2022-12-11T03:08:59;-0.30;55.80
1025;DHT22;501;48.214;11.350;2022-12-11T03:11:25;-0.30;55.50
1025;DHT22;501;48.214;11.350;2022-12-11T03:13:51;-0.30;55.20
1025;DHT22;501;48.214;11.350;2022-12-11T03:19:23;-0.20;54.90
1025;DHT22;501;48.214;11.350;2022-12-11T03:22:09;-0.30;54.00
1025;DHT22;501;48.214;11.350;2022-12-11T03:24:49;-0.30;54.10
1025;DHT22;501;48.214;11.350;2022-12-11T03:27:41;-0.20;54.70
1025;DHT22;501;48.214;11.350;2022-12-11T03:30:15;-0.20;54.10
1025;DHT22;501;48.214;11.350;2022-12-11T03:32:49;-0.20;53.50
1025;DHT22;501;48.214;11.350;2022-12-11T03:38:15;-0.30;53.00
1025;DHT22;501;48.214;11.350;2022-12-11T03:40:45;-0.30;52.80
1025;DHT22;501;48.214;11.350;2022-12-11T03:43:13;-0.20;53.00
1025;DHT22;501;48.214;11.350;2022-12-11T03:45:41;-0.30;52.60
1025;DHT22;501;48.214;11.350;2022-12-11T03:48:08;-0.30;52.80
1025;DHT22;501;48.214;11.350;2022-12-11T03:50:34;-0.30;52.80
1025;DHT22;501;48.214;11.350;2022-12-11T03:53:02;-0.30;52.70
1025;DHT22;501;48.214;11.350;2022-12-11T03:55:29;-0.30;53.00
1025;DHT22;501;48.214;11.350;2022-12-11T03:57:57;-0.30;53.20
1025;DHT22;501;48.214;11.350;2022-12-11T04:00:22;-0.30;53.30
1025;DHT22;501;48.214;11.350;2022-12-11T04:02:48;-0.30;52.20
1025;DHT22;501;48.214;11.350;2022-12-11T04:05:34;-0.30;52.70
1025;DHT22;501;48.214;11.350;2022-12-11T04:08:00;-0.40;53.00
1025;DHT22;501;48.214;11.350;2022-12-11T04:10:26;-0.40;53.30
1025;DHT22;501;48.214;11.350;2022-12-11T04:12:52;-0.40;53.40
1025;DHT22;501;48.214;11.350;2022-12-11T04:15:17;-0.40;53.10
1025;DHT22;501;48.214;11.350;2022-12-11T04:17:43;-0.50;45.80
1025;DHT22;501;48.214;11.350;2022-12-11T04:20:27;-0.50;44.80
1025;DHT22;501;48.214;11.350;2022-12-11T04:23:13;-0.60;43.20
1025;DHT22;501;48.214;11.350;2022-12-11T04:26:08;-0.60;44.00
1025;DHT22;501;48.214;11.350;2022-12-11T04:28:34;-0.60;45.60
1025;DHT22;501;48.214;11.350;2022-12-11T04:31:00;-0.60;46.60
1025;DHT22;501;48.214;11.350;2022-12-11T04:33:26;-0.60;46.60
1025;DHT22;501;48.214;11.350;2022-12-11T04:35:52;-0.60;48.00
1025;DHT22;501;48.214;11.350;2022-12-11T04:38:17;-0.50;48.40
1025;DHT22;501;48.214;11.350;2022-12-11T04:40:43;-0.50;49.60
1025;DHT22;501;48.214;11.350;2022-12-11T04:43:09;-0.40;49.70
1025;DHT22;501;48.214;11.350;2022-12-11T04:45:34;-0.40;49.70
1025;DHT22;501;48.214;11.350;2022-12-11T04:48:00;-0.40;50.20
1025;DHT22;501;48.214;11.350;2022-12-11T04:50:25;-0.40;51.00
1025;DHT22;501;48.214;11.350;2022-12-11T04:52:55;-0.30;51.40
1025;DHT22;501;48.214;11.350;2022-12-11T04:55:20;-0.30;51.40
1025;DHT22;501;48.214;11.350;2022-12-11T04:57:46;-0.20;51.20
1025;DHT22;501;48.214;11.350;2022-12-11T05:00:12;-0.20;51.00
1025;DHT22;501;48.214;11.350;2022-12-11T05:02:40;-0.20;51.20
1025;DHT22;501;48.214;11.350;2022-12-11T05:05:07;-0.20;50.10
1025;DHT22;501;48.214;11.350;2022-12-11T05:07:38;-0.20;49.90
1025;DHT22;501;48.214;11.350;2022-12-11T05:10:04;-0.20;49.90
1025;DHT22;501;48.214;11.350;2022-12-11T05:12:31;-0.10;50.00
1025;DHT22;501;48.214;11.350;2022-12-11T05:14:57;-0.10;50.00
1025;DHT22;501;48.214;11.350;2022-12-11T05:17:22;-0.10;50.00
1025;DHT22;501;48.214;11.350;2022-12-11T05:19:49;-0.10;50.30
1025;DHT22;501;48.214;11.350;2022-12-11T05:22:16;-0.10;50.40
1025;DHT22;501;48.214;11.350;2022-12-11T05:24:42;-0.10;50.70
1025;DHT22;501;48.214;11.350;2022-12-11T05:27:08;0.00;50.70
1025;DHT22;501;48.214;11.350;2022-12-11T05:29:34;0.00;50.10
1025;DHT22;501;48.214;11.350;2022-12-11T05:32:00;0.00;50.10
1025;DHT22;501;48.214;11.350;2022-12-11T05:34:26;0.00;49.20
1025;DHT22;501;48.214;11.350;2022-12-11T05:36:51;0.00;48.30
1025;DHT22;501;48.214;11.350;2022-12-11T05:39:17;0.00;47.90
1025;DHT22;501;48.214;11.350;2022-12-11T05:41:43;0.00;48.30
1025;DHT22;501;48.214;11.350;2022-12-11T05:44:11;0.00;47.80
1025;DHT22;501;48.214;11.350;2022-12-11T05:46:37;0.00;48.10
1025;DHT22;501;48.214;11.350;2022-12-11T05:49:03;0.00;48.30
1025;DHT22;501;48.214;11.350;2022-12-11T05:51:30;0.00;48.20
1025;DHT22;501;48.214;11.350;2022-12-11T05:53:56;0.00;47.90
1025;DHT22;501;48.214;11.350;2022-12-11T05:56:28;-0.10;48.70
1025;DHT22;501;48.214;11.350;2022-12-11T05:58:54;-0.10;48.90
1025;DHT22;501;48.214;11.350;2022-12-11T06:01:29;-0.10;49.60
1025;DHT22;501;48.214;11.350;2022-12-11T06:03:56;-0.20;49.90
1025;DHT22;501;48.214;11.350;2022-12-11T06:06:22;-0.20;49.90
1025;DHT22;501;48.214;11.350;2022-12-11T06:08:52;-0.20;50.20
1025;DHT22;501;48.214;11.350;2022-12-11T06:11:19;-0.20;50.60
1025;DHT22;501;48.214;11.350;2022-12-11T06:13:45;-0.20;50.90
1025;DHT22;501;48.214;11.350;2022-12-11T06:16:11;-0.30;51.30
1025;DHT22;501;48.214;11.350;2022-12-11T06:18:38;-0.20;51.00
1025;DHT22;501;48.214;11.350;2022-12-11T06:23:40;-0.30;50.80
1025;DHT22;501;48.214;11.350;2022-12-11T06:26:07;-0.30;50.40
1025;DHT22;501;48.214;11.350;2022-12-11T06:28:32;-0.30;50.50
1025;DHT22;501;48.214;11.350;2022-12-11T06:30:58;-0.30;50.90
1025;DHT22;501;48.214;11.350;2022-12-11T06:33:24;-0.30;50.70
1025;DHT22;501;48.214;11.350;2022-12-11T06:35:50;-0.30;49.80
1025;DHT22;501;48.214;11.350;2022-12-11T06:38:16;-0.30;50.70
1025;DHT22;501;48.214;11.350;2022-12-11T06:40:42;-0.30;50.50
1025;DHT22;501;48.214;11.350;2022-12-11T06:43:08;-0.30;49.80
1025;DHT22;501;48.214;11.350;2022-12-11T06:45:33;-0.30;50.60
1025;DHT22;501;48.214;11.350;2022-12-11T06:47:59;-0.30;50.60
1025;DHT22;501;48.214;11.350;2022-12-11T06:50:25;-0.30;49.80
1025;DHT22;501;48.214;11.350;2022-12-11T06:52:51;-0.20;49.90
1025;DHT22;501;48.214;11.350;2022-12-11T06:55:16;-0.30;49.80
1025;DHT22;501;48.214;11.350;2022-12-11T06:57:42;-0.30;49.80
1025;DHT22;501;48.214;11.350;2022-12-11T07:00:08;-0.30;49.80
1025;DHT22;501;48.214;11.350;2022-12-11T07:02:34;-0.30;49.80
1025;DHT22;501;48.214;11.350;2022-12-11T07:04:59;-0.30;49.80
1025;DHT22;501;48.214;11.350;2022-12-11T07:07:25;-0.40;49.70
1025;DHT22;501;48.214;11.350;2022-12-11T07:09:51;-0.40;50.10
1025;DHT22;501;48.214;11.350;2022-12-11T07:12:16;-0.40;50.20
1025;DHT22;501;48.214;11.350;2022-12-11T07:14:42;-0.40;49.70
1025;DHT22;501;48.214;11.350;2022-12-11T07:17:07;-0.40;49.70
1025;DHT22;501;48.214;11.350;2022-12-11T07:19:33;-0.40;50.60
1025;DHT22;501;48.214;11.350;2022-12-11T07:21:59;-0.40;50.70
1025;DHT22;501;48.214;11.350;2022-12-11T07:24:24;-0.40;50.20
1025;DHT22;501;48.214;11.350;2022-12-11T07:26:50;-0.50;50.60
1025;DHT22;501;48.214;11.350;2022-12-11T07:29:15;-0.40;50.60
1025;DHT22;501;48.214;11.350;2022-12-11T07:31:41;-0.40;50.60
1025;DHT22;501;48.214;11.350;2022-12-11T07:34:07;-0.40;50.30
1025;DHT22;501;48.214;11.350;2022-12-11T07:36:33;-0.30;49.80
1025;DHT22;501;48.214;11.350;2022-12-11T07:38:59;-0.40;49.70
1025;DHT22;501;48.214;11.350;2022-12-11T07:41:25;-0.30;49.30
1025;DHT22;501;48.214;11.350;2022-12-11T07:43:53;-0.30;49.10
1025;DHT22;501;48.214;11.350;2022-12-11T07:46:22;-0.30;48.60
1025;DHT22;501;48.214;11.350;2022-12-11T07:48:49;-0.30;48.90
1025;DHT22;501;48.214;11.350;2022-12-11T07:51:20;-0.30;49.10
1025;DHT22;501;48.214;11.350;2022-12-11T07:53:51;-0.30;49.30
1025;DHT22;501;48.214;11.350;2022-12-11T07:56:18;-0.30;49.30
1025;DHT22;501;48.214;11.350;2022-12-11T07:58:44;-0.30;50.10
1025;DHT22;501;48.214;11.350;2022-12-11T08:03:37;-0.20;50.40
1025;DHT22;501;48.214;11.350;2022-12-11T08:06:04;-0.10;50.50
1025;DHT22;501;48.214;11.350;2022-12-11T08:08:30;-0.10;49.10
1025;DHT22;501;48.214;11.350;2022-12-11T08:10:55;-0.10;49.90
1025;DHT22;501;48.214;11.350;2022-12-11T08:13:24;-0.10;49.70
1025;DHT22;501;48.214;11.350;2022-12-11T08:15:50;-0.10;50.60
1025;DHT22;501;48.214;11.350;2022-12-11T08:18:15;-0.10;49.20
1025;DHT22;501;48.214;11.350;2022-12-11T08:20:41;-0.10;49.10
1025;DHT22;501;48.214;11.350;2022-12-11T08:23:07;-0.10;48.60
1025;DHT22;501;48.214;11.350;2022-12-11T08:25:32;-0.10;47.70
1025;DHT22;501;48.214;11.350;2022-12-11T08:27:58;-0.10;47.90
1025;DHT22;501;48.214;11.350;2022-12-11T08:30:23;-0.10;48.20
1025;DHT22;501;48.214;11.350;2022-12-11T08:32:49;-0.10;48.10
1025;DHT22;501;48.214;11.350;2022-12-11T08:35:15;-0.10;47.30
1025;DHT22;501;48.214;11.350;2022-12-11T08:37:40;-0.20;47.30
1025;DHT22;501;48.214;11.350;2022-12-11T08:40:07;-0.20;47.40
1025;DHT22;501;48.214;11.350;2022-12-11T08:42:36;-0.20;48.40
1025;DHT22;501;48.214;11.350;2022-12-11T08:45:02;-0.20;48.40
1025;DHT22;501;48.214;11.350;2022-12-11T08:47:28;-0.20;47.50
1025;DHT22;501;48.214;11.350;2022-12-11T08:49:54;-0.20;46.60
1025;DHT22;501;48.214;11.350;2022-12-11T08:52:19;-0.30;47.60
1025;DHT22;501;48.214;11.350;2022-12-11T08:54:45;-0.20;47.20
1025;DHT22;501;48.214;11.350;2022-12-11T08:57:10;-0.30;47.20
1025;DHT22;501;48.214;11.350;2022-12-11T08:59:36;-0.30;46.30
1025;DHT22;501;48.214;11.350;2022-12-11T09:02:02;-0.30;46.50
1025;DHT22;501;48.214;11.350;2022-12-11T09:04:27;-0.30;46.50
1025;DHT22;501;48.214;11.350;2022-12-11T09:06:53;-0.30;46.60
1025;DHT22;501;48.214;11.350;2022-12-11T09:09:18;-0.30;47.70
1025;DHT22;501;48.214;11.350;2022-12-11T09:11:44;-0.30;48.60
1025;DHT22;501;48.214;11.350;2022-12-11T09:14:10;-0.30;46.90
1025;DHT22;501;48.214;11.350;2022-12-11T09:16:38;-0.30;45.70
1025;DHT22;501;48.214;11.350;2022-12-11T09:19:06;-0.30;46.00
1025;DHT22;501;48.214;11.350;2022-12-11T09:21:32;-0.40;46.40
1025;DHT22;501;48.214;11.350;2022-12-11T09:23:59;-0.40;46.20
1025;DHT22;501;48.214;11.350;2022-12-11T09:26:27;-0.40;46.70
1025;DHT22;501;48.214;11.350;2022-12-11T09:28:54;-0.40;46.20
1025;DHT22;501;48.214;11.350;2022-12-11T09:31:26;-0.40;46.30
1025;DHT22;501;48.214;11.350;2022-12-11T09:33:54;-0.30;46.90
1025;DHT22;501;48.214;11.350;2022-12-11T09:36:21;-0.30;45.50
1025;DHT22;501;48.214;11.350;2022-12-11T09:38:47;-0.30;44.70
1025;DHT22;501;48.214;11.350;2022-12-11T09:41:25;-0.30;44.20
1025;DHT22;501;48.214;11.350;2022-12-11T09:46:33;-0.30;45.50
1025;DHT22;501;48.214;11.350;2022-12-11T09:49:01;-0.30;44.80
1025;DHT22;501;48.214;11.350;2022-12-11T09:54:02;-0.40;44.70
1025;DHT22;501;48.214;11.350;2022-12-11T10:07:54;-0.60;44.50
1025;DHT22;501;48.214;11.350;2022-12-11T10:10:49;-0.60;45.80
1025;DHT22;501;48.214;11.350;2022-12-11T10:16:17;-0.40;46.50
1025;DHT22;501;48.214;11.350;2022-12-11T10:18:44;-0.40;45.80
1025;DHT22;501;48.214;11.350;2022-12-11T10:21:11;-0.30;45.20
1025;DHT22;501;48.214;11.350;2022-12-11T10:23:43;-0.20;46.00
1025;DHT22;501;48.214;11.350;2022-12-11T10:26:21;-0.20;45.80
1025;DHT22;501;48.214;11.350;2022-12-11T10:28:47;-0.10;43.90
1025;DHT22;501;48.214;11.350;2022-12-11T10:31:18;-0.10;44.40
1025;DHT22;501;48.214;11.350;2022-12-11T10:34:00;-0.10;44.70
1025;DHT22;501;48.214;11.350;2022-12-11T10:36:29;0.00;43.50
1025;DHT22;501;48.214;11.350;2022-12-11T10:38:55;0.00;43.50
1025;DHT22;501;48.214;11.350;2022-12-11T10:41:23;0.10;44.60
1025;DHT22;501;48.214;11.350;2022-12-11T10:43:55;0.20;44.70
1025;DHT22;501;48.214;11.350;2022-12-11T10:46:23;0.20;43.20
1025;DHT22;501;48.214;11.350;2022-12-11T10:48:53;0.20;42.80
1025;DHT22;501;48.214;11.350;2022-12-11T10:51:28;0.20;43.00
1025;DHT22;501;48.214;11.350;2022-12-11T10:54:24;0.20;42.70
1025;DHT22;501;48.214;11.350;2022-12-11T10:56:52;0.30;42.40
1025;DHT22;501;48.214;11.350;2022-12-11T10:59:25;0.30;41.80
1025;DHT22;501;48.214;11.350;2022-12-11T11:01:54;0.30;41.00
1025;DHT22;501;48.214;11.350;2022-12-11T11:04:26;0.30;41.80
1025;DHT22;501;48.214;11.350;2022-12-11T11:07:14;0.30;41.70
1025;DHT22;501;48.214;11.350;2022-12-11T11:09:41;0.30;41.80
1025;DHT22;501;48.214;11.350;2022-12-11T11:12:26;0.30;41.80
1025;DHT22;501;48.214;11.350;2022-12-11T11:15:21;0.30;42.20
1025;DHT22;501;48.214;11.350;2022-12-11T11:17:52;0.30;40.90
1025;DHT22;501;48.214;11.350;2022-12-11T11:20:21;0.20;41.70
1025;DHT22;501;48.214;11.350;2022-12-11T11:22:50;0.20;41.20
1025;DHT22;501;48.214;11.350;2022-12-11T11:25:23;0.20;41.70
1025;DHT22;501;48.214;11.350;2022-12-11T11:27:50;0.20;41.70
1025;DHT22;501;48.214;11.350;2022-12-11T11:30:28;0.30;41.80
1025;DHT22;501;48.214;11.350;2022-12-11T11:33:03;0.30;42.30
1025;DHT22;501;48.214;11.350;2022-12-11T11:35:30;0.30;42.30
1025;DHT22;501;48.214;11.350;2022-12-11T11:40:48;0.30;41.80
1025;DHT22;501;48.214;11.350;2022-12-11T11:43:33;0.30;41.90
1025;DHT22;501;48.214;11.350;2022-12-11T11:49:02;0.30;41.80
1025;DHT22;501;48.214;11.350;2022-12-11T11:51:40;0.30;41.20
1025;DHT22;501;48.214;11.350;2022-12-11T11:54:29;0.30;41.90
1025;DHT22;501;48.214;11.350;2022-12-11T11:56:56;0.30;42.10
1025;DHT22;501;48.214;11.350;2022-12-11T11:59:29;0.40;40.80
1025;DHT22;501;48.214;11.350;2022-12-11T12:01:56;0.40;41.70
1025;DHT22;501;48.214;11.350;2022-12-11T12:04:24;0.40;41.20
1025;DHT22;501;48.214;11.350;2022-12-11T12:07:13;0.40;41.90
1025;DHT22;501;48.214;11.350;2022-12-11T12:12:52;0.50;41.90
1025;DHT22;501;48.214;11.350;2022-12-11T12:26:29;0.60;41.10
1025;DHT22;501;48.214;11.350;2022-12-11T12:31:54;0.60;38.90
1025;DHT22;501;48.214;11.350;2022-12-11T12:34:27;0.50;39.00
1025;DHT22;501;48.214;11.350;2022-12-11T12:45:58;0.30;39.60
1025;DHT22;501;48.214;11.350;2022-12-11T12:48:26;0.30;40.20
1025;DHT22;501;48.214;11.350;2022-12-11T12:50:52;0.30;39.30
1025;DHT22;501;48.214;11.350;2022-12-11T12:53:23;0.20;38.20
1025;DHT22;501;48.214;11.350;2022-12-11T12:55:50;0.20;39.10
1025;DHT22;501;48.214;11.350;2022-12-11T12:58:44;0.10;39.80
1025;DHT22;501;48.214;11.350;2022-12-11T13:01:18;0.10;41.60
1025;DHT22;501;48.214;11.350;2022-12-11T13:03:53;0.10;41.00
1025;DHT22;501;48.214;11.350;2022-12-11T13:06:44;0.10;40.30
1025;DHT22;501;48.214;11.350;2022-12-11T13:11:45;0.40;40.00
1025;DHT22;501;48.214;11.350;2022-12-11T13:16:45;0.40;40.30
1025;DHT22;501;48.214;11.350;2022-12-11T13:19:27;0.50;39.50
1025;DHT22;501;48.214;11.350;2022-12-11T13:26:49;0.50;39.70
1025;DHT22;501;48.214;11.350;2022-12-11T13:29:34;0.50;39.20
1025;DHT22;501;48.214;11.350;2022-12-11T13:34:31;0.40;38.10
1025;DHT22;501;48.214;11.350;2022-12-11T13:36:57;0.40;38.40
1025;DHT22;501;48.214;11.350;2022-12-11T13:39:30;0.40;39.40
1025;DHT22;501;48.214;11.350;2022-12-11T13:41:59;0.40;38.50
1025;DHT22;501;48.214;11.350;2022-12-11T13:44:28;0.40;40.10
1025;DHT22;501;48.214;11.350;2022-12-11T13:46:57;0.40;39.70
1025;DHT22;501;48.214;11.350;2022-12-11T13:49:36;0.40;39.40
1025;DHT22;501;48.214;11.350;2022-12-11T13:52:04;0.40;39.00
1025;DHT22;501;48.214;11.350;2022-12-11T13:54:32;0.40;39.80
1025;DHT22;501;48.214;11.350;2022-12-11T13:59:37;0.40;39.50
1025;DHT22;501;48.214;11.350;2022-12-11T14:04:43;0.30;38.20
1025;DHT22;501;48.214;11.350;2022-12-11T14:07:09;0.30;38.90
1025;DHT22;501;48.214;11.350;2022-12-11T14:09:44;0.20;38.90
1025;DHT22;501;48.214;11.350;2022-12-11T14:12:16;0.20;39.00
1025;DHT22;501;48.214;11.350;2022-12-11T14:14:52;0.20;39.70
1025;DHT22;501;48.214;11.350;2022-12-11T14:17:28;0.20;39.90
1025;DHT22;501;48.214;11.350;2022-12-11T14:19:57;0.20;39.30
1025;DHT22;501;48.214;11.350;2022-12-11T14:22:26;0.20;39.70
1025;DHT22;501;48.214;11.350;2022-12-11T14:25:00;0.10;39.20
1025;DHT22;501;48.214;11.350;2022-12-11T14:27:28;0.10;39.60
1025;DHT22;501;48.214;11.350;2022-12-11T14:29:55;0.10;39.80
1025;DHT22;501;48.214;11.350;2022-12-11T14:32:31;0.10;39.70
1025;DHT22;501;48.214;11.350;2022-12-11T14:34:59;0.10;40.40
1025;DHT22;501;48.214;11.350;2022-12-11T14:37:26;0.10;39.60
1025;DHT22;501;48.214;11.350;2022-12-11T14:40:02;0.10;40.30
1025;DHT22;501;48.214;11.350;2022-12-11T14:42:33;0.10;40.20
1025;DHT22;501;48.214;11.350;2022-12-11T14:45:15;0.10;40.90
1025;DHT22;501;48.214;11.350;2022-12-11T14:47:44;0.10;41.10
1025;DHT22;501;48.214;11.350;2022-12-11T14:52:47;0.10;41.50
1025;DHT22;501;48.214;11.350;2022-12-11T14:55:20;0.10;41.00
1025;DHT22;501;48.214;11.350;2022-12-11T14:57:49;0.10;40.60
1025;DHT22;501;48.214;11.350;2022-12-11T15:00:43;0.00;41.50
1025;DHT22;501;48.214;11.350;2022-12-11T15:03:23;0.10;41.70
1025;DHT22;501;48.214;11.350;2022-12-11T15:05:50;0.10;41.60
1025;DHT22;501;48.214;11.350;2022-12-11T15:08:25;0.10;42.30
1025;DHT22;501;48.214;11.350;2022-12-11T15:11:10;0.10;40.70
1025;DHT22;501;48.214;11.350;2022-12-11T15:14:01;0.00;41.50
1025;DHT22;501;48.214;11.350;2022-12-11T15:16:27;0.00;41.50
1025;DHT22;501;48.214;11.350;2022-12-11T15:18:55;0.10;41.60
1025;DHT22;501;48.214;11.350;2022-12-11T15:21:28;0.10;41.30
1025;DHT22;501;48.214;11.350;2022-12-11T15:23:56;0.00;40.40
1025;DHT22;501;48.214;11.350;2022-12-11T15:26:37;0.00;40.80
1025;DHT22;501;48.214;11.350;2022-12-11T15:39:53;-0.20;39.80
1025;DHT22;501;48.214;11.350;2022-12-11T15:42:33;-0.30;40.00
1025;DHT22;501;48.214;11.350;2022-12-11T15:45:00;-0.30;40.50
1025;DHT22;501;48.214;11.350;2022-12-11T15:47:28;-0.30;41.30
1025;DHT22;501;48.214;11.350;2022-12-11T15:50:06;-0.30;40.90
1025;DHT22;501;48.214;11.350;2022-12-11T15:52:36;-0.40;40.50
1025;DHT22;501;48.214;11.350;2022-12-11T15:55:01;-0.40;41.20
1025;DHT22;501;48.214;11.350;2022-12-11T15:57:27;-0.40;40.80
1025;DHT22;501;48.214;11.350;2022-12-11T15:59:53;-0.50;41.10
1025;DHT22;501;48.214;11.350;2022-12-11T16:02:19;-0.50;41.10
1025;DHT22;501;48.214;11.350;2022-12-11T16:04:44;-0.50;41.10
1025;DHT22;501;48.214;11.350;2022-12-11T16:07:19;-0.40;41.20
1025;DHT22;501;48.214;11.350;2022-12-11T16:09:45;-0.40;41.20
1025;DHT22;501;48.214;11.350;2022-12-11T16:12:11;-0.40;41.20
1025;DHT22;501;48.214;11.350;2022-12-11T16:14:42;-0.40;41.20
1025;DHT22;501;48.214;11.350;2022-12-11T16:17:09;-0.40;41.50
1025;DHT22;501;48.214;11.350;2022-12-11T16:19:35;-0.40;41.80
1025;DHT22;501;48.214;11.350;2022-12-11T16:22:01;-0.40;41.20
1025;DHT22;501;48.214;11.350;2022-12-11T16:24:27;-0.40;41.20
1025;DHT22;501;48.214;11.350;2022-12-11T16:26:54;-0.50;41.10
1025;DHT22;501;48.214;11.350;2022-12-11T16:29:19;-0.50;41.10
1025;DHT22;501;48.214;11.350;2022-12-11T16:31:45;-0.60;41.60
1025;DHT22;501;48.214;11.350;2022-12-11T16:34:14;-0.60;41.90
1025;DHT22;501;48.214;11.350;2022-12-11T16:36:39;-0.60;41.00
1025;DHT22;501;48.214;11.350;2022-12-11T16:39:05;-0.60;42.10
1025;DHT22;501;48.214;11.350;2022-12-11T16:41:30;-0.70;42.00
1025;DHT22;501;48.214;11.350;2022-12-11T16:43:56;-0.70;42.00
1025;DHT22;501;48.214;11.350;2022-12-11T16:46:23;-0.80;42.60
1025;DHT22;501;48.214;11.350;2022-12-11T16:48:49;-0.70;43.80
1025;DHT22;501;48.214;11.350;2022-12-11T16:51:15;-0.80;42.80
1025;DHT22;501;48.214;11.350;2022-12-11T16:53:41;-0.80;42.80
1025;DHT22;501;48.214;11.350;2022-12-11T16:56:07;-0.80;42.70
1025;DHT22;501;48.214;11.350;2022-12-11T16:58:33;-0.80;42.40
1025;DHT22;501;48.214;11.350;2022-12-11T17:00:58;-0.90;42.80
1025;DHT22;501;48.214;11.350;2022-12-11T17:03:30;-0.90;43.00
1025;DHT22;501;48.214;11.350;2022-12-11T17:05:57;-0.90;43.20
1025;DHT22;501;48.214;11.350;2022-12-11T17:08:23;-0.90;43.00
1025;DHT22;501;48.214;11.350;2022-12-11T17:10:50;-0.90;42.60
1025;DHT22;501;48.214;11.350;2022-12-11T17:13:16;-1.00;42.50
1025;DHT22;501;48.214;11.350;2022-12-11T17:15:43;-1.00;42.80
1025;DHT22;501;48.214;11.350;2022-12-11T17:18:09;-1.00;42.90
1025;DHT22;501;48.214;11.350;2022-12-11T17:20:39;-1.00;42.90
1025;DHT22;501;48.214;11.350;2022-12-11T17:23:06;-1.00;43.00
1025;DHT22;501;48.214;11.350;2022-12-11T17:25:34;-1.00;43.10
1025;DHT22;501;48.214;11.350;2022-12-11T17:28:10;-1.00;42.80
1025;DHT22;501;48.214;11.350;2022-12-11T17:30:44;-1.00;43.90
1025;DHT22;501;48.214;11.350;2022-12-11T17:33:10;-1.00;43.10
1025;DHT22;501;48.214;11.350;2022-12-11T17:35:37;-1.00;43.10
1025;DHT22;501;48.214;11.350;2022-12-11T17:38:03;-0.90;42.70
1025;DHT22;501;48.214;11.350;2022-12-11T17:40:29;-1.00;42.80
1025;DHT22;501;48.214;11.350;2022-12-11T17:42:54;-0.90;43.90
1025;DHT22;501;48.214;11.350;2022-12-11T17:45:20;-0.90;43.40
1025;DHT22;501;48.214;11.350;2022-12-11T17:47:46;-0.90;43.60
1025;DHT22;501;48.214;11.350;2022-12-11T17:50:12;-0.90;43.70
1025;DHT22;501;48.214;11.350;2022-12-11T17:52:37;-0.90;43.30
1025;DHT22;501;48.214;11.350;2022-12-11T17:55:05;-0.90;43.80
1025;DHT22;501;48.214;11.350;2022-12-11T17:57:31;-0.90;44.70
1025;DHT22;501;48.214;11.350;2022-12-11T17:59:56;-0.90;44.10
1025;DHT22;501;48.214;11.350;2022-12-11T18:02:23;-0.90;44.50
1025;DHT22;501;48.214;11.350;2022-12-11T18:04:49;-0.90;44.00
1025;DHT22;501;48.214;11.350;2022-12-11T18:07:15;-0.90;44.50
1025;DHT22;501;48.214;11.350;2022-12-11T18:09:41;-0.90;44.00